Time;durP1;ratioP1;P1;durP2;ratioP2;P2;SDS_P1;SDS_P2;PMS_P1;PMS_P2;Temp;Humidity;BMP_temperature;BMP_pressure;BME280_temperature;BME280_humidity;BME280_pressure;Samples;Min_cycle;Max_cycle;Signal;HPM_P1;HPM_P2
2021/10/03 00:00:59;;;;;;;4.43;0.80;;;5.30;53.40;;;;;;4877103;28;20231;-86
2021/10/03 00:03:22;;;;;;;11.70;1.97;;;5.40;53.80;;;;;;4878078;28;20259;-85
2021/10/03 00:05:47;;;;;;;5.57;1.07;;;5.20;55.80;;;;;;4878639;28;20701;-85
2021/10/03 00:08:10;;;;;;;4.93;0.93;;;;;;;;;;4877742;28;20275;-86
2021/10/03 00:10:32;;;;;;;5.73;1.00;;;5.30;54.30;;;;;;4877444;28;20206;-86
2021/10/03 00:12:55;;;;;;;5.53;0.97;;;5.10;57.70;;;;;;4878870;28;20228;-85
2021/10/03 00:15:19;;;;;;;11.17;1.90;;;5.10;60.60;;;;;;4878147;28;20189;-84
2021/10/03 00:17:44;;;;;;;5.33;1.07;;;4.90;62.20;;;;;;4876835;28;20197;-83
2021/10/03 00:20:08;;;;;;;2.93;0.70;;;4.90;62.00;;;;;;4877966;28;20185;-82
2021/10/03 00:22:31;;;;;;;7.57;1.40;;;5.00;60.00;;;;;;4876573;28;20201;-84
2021/10/03 00:24:54;;;;;;;5.73;1.17;;;5.10;57.30;;;;;;4878054;28;20224;-82
2021/10/03 00:27:16;;;;;;;14.90;2.40;;;;;;;;;;4877373;28;20185;-85
2021/10/03 00:29:41;;;;;;;3.77;0.77;;;;;;;;;;4877864;28;20228;-84
2021/10/03 00:32:04;;;;;;;5.17;1.00;;;4.90;55.40;;;;;;4877166;28;20196;-84
2021/10/03 00:34:28;;;;;;;6.03;1.10;;;4.80;56.60;;;;;;4877186;28;20251;-82
2021/10/03 00:36:51;;;;;;;5.70;1.10;;;4.80;54.60;;;;;;4877251;28;20193;-77
2021/10/03 00:39:13;;;;;;;11.13;1.97;;;4.90;57.00;;;;;;4876820;28;20208;-78
2021/10/03 00:41:36;;;;;;;5.57;1.00;;;;;;;;;;4875568;28;20235;-78
2021/10/03 00:43:59;;;;;;;10.57;1.83;;;4.80;56.90;;;;;;4875008;28;20229;-78
2021/10/03 00:46:21;;;;;;;11.50;2.00;;;4.70;57.10;;;;;;4876529;28;20185;-78
2021/10/03 00:48:44;;;;;;;5.07;1.03;;;;;;;;;;4876425;28;20543;-76
2021/10/03 00:51:09;;;;;;;3.33;0.77;;;4.50;57.60;;;;;;4876101;28;20186;-76
2021/10/03 00:53:32;;;;;;;4.53;0.97;;;;;;;;;;4876871;28;20628;-78
2021/10/03 00:55:55;;;;;;;5.13;1.00;;;;;;;;;;4876891;28;20247;-77
2021/10/03 00:58:17;;;;;;;12.40;2.23;;;;;;;;;;4875940;28;20193;-78
2021/10/03 01:00:43;;;;;;;35.07;5.80;;;4.40;58.30;;;;;;4874872;28;20216;-77
2021/10/03 01:03:07;;;;;;;3.30;0.70;;;4.40;56.50;;;;;;4876616;28;20709;-80
2021/10/03 01:05:30;;;;;;;7.40;1.50;;;5.90;55.90;;;;;;4876266;28;20193;-77
2021/10/03 01:07:54;;;;;;;4.60;0.93;;;4.30;54.90;;;;;;4876508;28;20181;-76
2021/10/03 01:10:22;;;;;;;11.13;2.07;;;4.50;53.30;;;;;;4874876;28;20233;-79
2021/10/03 01:12:45;;;;;;;6.77;1.27;;;;;;;;;;4876600;28;20182;-77
2021/10/03 01:15:10;;;;;;;2.47;0.60;;;4.40;55.40;;;;;;4876080;28;20232;-78
2021/10/03 01:17:33;;;;;;;5.30;1.07;;;4.40;54.70;;;;;;4875916;28;20603;-79
2021/10/03 01:19:56;;;;;;;4.60;1.00;;;;;;;;;;4858414;28;20190;-77
2021/10/03 01:22:20;;;;;;;10.87;1.97;;;4.50;51.30;;;;;;4874832;28;20193;-77
2021/10/03 01:24:43;;;;;;;5.37;1.03;;;;;;;;;;4858683;28;20254;-76
2021/10/03 01:27:06;;;;;;;4.63;0.93;;;;;;;;;;4876240;28;20188;-77
2021/10/03 01:29:28;;;;;;;6.33;1.20;;;;;;;;;;4858347;28;20218;-76
2021/10/03 01:31:51;;;;;;;7.20;1.20;;;;;;;;;;4876121;28;20181;-76
2021/10/03 01:34:14;;;;;;;12.77;2.10;;;;;;;;;;4875717;28;20193;-78
2021/10/03 01:36:36;;;;;;;4.93;1.03;;;4.30;51.20;;;;;;4868950;28;20205;-78
2021/10/03 01:39:00;;;;;;;5.77;1.10;;;4.30;51.40;;;;;;4876118;28;20185;-77
2021/10/03 01:41:23;;;;;;;9.80;1.83;;;4.20;51.20;;;;;;4873279;28;20262;-75
2021/10/03 01:43:46;;;;;;;4.53;0.93;;;;;;;;;;4876266;28;20201;-78
2021/10/03 01:46:08;;;;;;;3.70;0.73;;;;;;;;;;4875497;28;20197;-76
2021/10/03 01:48:31;;;;;;;4.83;1.00;;;4.40;50.00;;;;;;4876728;28;20189;-79
2021/10/03 01:50:57;;;;;;;3.57;0.80;;;4.30;52.10;;;;;;4876573;28;20235;-75
2021/10/03 01:53:21;;;;;;;10.70;1.93;;;4.30;50.70;;;;;;4875780;28;20588;-76
2021/10/03 01:55:46;;;;;;;5.20;1.10;;;4.20;52.40;;;;;;4876135;28;20185;-76
2021/10/03 01:58:09;;;;;;;5.73;1.17;;;4.40;49.90;;;;;;4875511;28;20189;-77
2021/10/03 02:00:32;;;;;;;47.60;8.30;;;4.20;51.10;;;;;;4872982;28;20193;-83
2021/10/03 02:03:00;;;;;;;3.93;0.90;;;4.30;51.60;;;;;;4874693;28;20620;-77
2021/10/03 02:05:23;;;;;;;7.37;1.47;;;4.50;50.80;;;;;;4875243;28;20198;-78
2021/10/03 02:07:45;;;;;;;3.30;0.80;;;4.30;48.50;;;;;;4875621;28;20225;-77
2021/10/03 02:10:08;;;;;;;2.30;0.70;;;;;;;;;;4875635;28;20247;-76
2021/10/03 02:12:32;;;;;;;7.43;1.57;;;4.60;47.80;;;;;;4874986;28;20197;-77
2021/10/03 02:14:55;;;;;;;4.93;1.10;;;4.50;47.70;;;;;;4875501;28;20192;-77
2021/10/03 02:17:17;;;;;;;9.30;1.83;;;;;;;;;;4873757;28;20189;-82
2021/10/03 02:19:42;;;;;;;7.33;1.50;;;4.30;49.80;;;;;;4875129;28;20194;-77
2021/10/03 02:22:05;;;;;;;4.63;1.00;;;4.30;47.60;;;;;;4875806;28;20247;-77
2021/10/03 02:24:28;;;;;;;6.20;1.27;;;;;;;;;;4874429;28;20251;-76
2021/10/03 02:26:51;;;;;;;3.87;0.83;;;;;;;;;;4875707;28;20235;-77
2021/10/03 02:29:15;;;;;;;8.37;1.67;;;4.40;49.10;;;;;;4874861;28;20201;-77
2021/10/03 02:31:37;;;;;;;4.33;1.07;;;4.40;47.80;;;;;;4869578;28;20185;-78
2021/10/03 02:34:00;;;;;;;6.23;1.27;;;;;;;;;;4875423;28;20239;-77
2021/10/03 02:36:23;;;;;;;9.90;2.07;;;4.20;46.90;;;;;;4874551;28;20254;-77
2021/10/03 02:38:46;;;;;;;3.07;0.90;;;4.40;49.30;;;;;;4875348;28;20193;-81
2021/10/03 02:41:10;;;;;;;3.43;0.83;;;4.40;48.90;;;;;;4875251;28;20190;-77
2021/10/03 02:43:36;;;;;;;4.10;0.93;;;4.40;48.80;;;;;;4867294;28;20251;-82
2021/10/03 02:46:01;;;;;;;3.47;0.90;;;4.50;47.00;;;;;;4875206;28;20663;-77
2021/10/03 02:48:25;;;;;;;8.07;1.83;;;3.70;46.70;;;;;;4873641;28;20189;-77
2021/10/03 02:50:49;;;;;;;2.87;0.80;;;4.60;47.10;;;;;;4869258;28;20217;-79
2021/10/03 02:53:12;;;;;;;8.10;1.70;;;;;;;;;;4874765;28;20182;-77
2021/10/03 02:55:35;;;;;;;5.73;1.30;;;;;;;;;;4873753;28;20630;-77
2021/10/03 02:57:57;;;;;;;3.83;1.07;;;4.60;47.90;;;;;;4874879;28;20270;-77
2021/10/03 03:00:20;;;;;;;8.27;1.93;;;;;;;;;;4873258;28;20205;-76
2021/10/03 03:02:44;;;;;;;3.97;1.00;;;4.70;46.50;;;;;;4872150;28;20613;-77
2021/10/03 03:05:08;;;;;;;3.67;0.97;;;4.90;44.00;;;;;;4875211;28;20178;-77
2021/10/03 03:07:31;;;;;;;3.50;0.97;;;;;;;;;;4874755;28;20198;-77
2021/10/03 03:09:54;;;;;;;4.07;1.10;;;;;;;;;;4875158;28;20202;-77
2021/10/03 03:12:16;;;;;;;6.03;1.47;;;4.80;44.40;;;;;;4876423;28;20243;-78
2021/10/03 03:14:39;;;;;;;3.20;0.90;;;;;;;;;;4876791;28;20606;-80
2021/10/03 03:17:14;;;;;;;4.73;1.13;;;4.90;45.60;;;;;;4877929;28;20197;-78
2021/10/03 03:19:38;;;;;;;5.23;1.60;;;4.60;45.60;;;;;;4868733;28;20247;-78
2021/10/03 03:22:00;;;;;;;3.20;0.83;;;;;;;;;;4877864;28;20181;-77
2021/10/03 03:24:23;;;;;;;9.87;2.23;;;4.50;46.10;;;;;;4877586;28;20200;-77
2021/10/03 03:26:45;;;;;;;2.27;0.70;;;5.50;46.50;;;;;;4878236;28;20181;-78
2021/10/03 03:29:08;;;;;;;2.67;0.80;;;;;;;;;;4878297;28;20275;-80
2021/10/03 03:31:30;;;;;;;5.37;1.33;;;4.50;46.50;;;;;;4877918;28;20597;-78
2021/10/03 03:33:53;;;;;;;4.80;1.20;;;4.70;46.50;;;;;;4877803;28;20201;-78
2021/10/03 03:36:17;;;;;;;7.07;1.73;;;4.50;48.40;;;;;;4878158;28;20186;-75
2021/10/03 03:38:40;;;;;;;3.83;1.00;;;;;;;;;;4878423;28;20185;-80
2021/10/03 03:41:03;;;;;;;4.23;1.17;;;4.60;47.00;;;;;;4877925;28;20197;-80
2021/10/03 03:43:25;;;;;;;3.33;0.90;;;4.30;47.00;;;;;;4876724;28;20279;-79
2021/10/03 03:45:48;;;;;;;2.47;0.77;;;;;;;;;;4877959;28;20243;-77
2021/10/03 03:48:11;;;;;;;5.57;1.37;;;4.40;47.40;;;;;;4877823;28;20189;-77
2021/10/03 03:50:35;;;;;;;5.37;1.47;;;4.30;49.00;;;;;;4876080;28;20225;-77
2021/10/03 03:52:59;;;;;;;3.30;0.90;;;3.90;51.40;;;;;;4877738;28;20185;-78
2021/10/03 03:55:21;;;;;;;6.37;1.60;;;4.10;51.40;;;;;;4876775;28;20193;-77
2021/10/03 03:57:44;;;;;;;3.40;0.90;;;4.10;51.60;;;;;;4877447;28;20192;-78
2021/10/03 04:00:10;;;;;;;2.53;0.80;;;4.00;53.20;;;;;;4876348;28;20197;-78
2021/10/03 04:02:32;;;;;;;5.10;1.30;;;4.00;51.00;;;;;;4874622;28;20217;-79
2021/10/03 04:04:55;;;;;;;3.83;0.93;;;;;;;;;;4870997;28;20687;-82
2021/10/03 04:07:20;;;;;;;7.23;1.77;;;;;;;;;;4877495;28;20193;-80
2021/10/03 04:09:44;;;;;;;3.50;0.97;;;3.90;52.80;;;;;;4875972;28;20181;-80
2021/10/03 04:12:07;;;;;;;4.57;1.20;;;3.90;52.80;;;;;;4876858;28;20189;-80
2021/10/03 04:14:49;;;;;;;1.97;0.63;;;4.00;50.10;;;;;;4876880;28;20769;-82
2021/10/03 04:17:32;;;;;;;3.10;0.90;;;3.80;50.40;;;;;;4877482;28;20930;-81
2021/10/03 04:20:14;;;;;;;5.77;1.40;;;3.90;52.00;;;;;;4877116;28;20178;-81
2021/10/03 04:22:57;;;;;;;3.53;0.90;;;3.80;53.70;;;;;;4870915;28;20178;-81
2021/10/03 04:25:41;;;;;;;8.97;2.07;;;3.80;53.80;;;;;;4869964;28;20181;-77
2021/10/03 04:28:25;;;;;;;7.80;1.90;;;3.90;52.60;;;;;;4875421;28;20189;-76
2021/10/03 04:31:09;;;;;;;2.47;0.80;;;;;;;;;;4876232;28;20278;-77
2021/10/03 04:33:51;;;;;;;3.67;0.97;;;4.00;50.10;;;;;;4870589;28;20185;-76
2021/10/03 04:36:25;;;;;;;6.57;1.70;;;3.70;51.10;;;;;;4876572;28;20264;-77
2021/10/03 04:38:48;;;;;;;2.80;0.80;;;;;;;;;;4877005;28;20235;-77
2021/10/03 04:41:12;;;;;;;6.60;1.57;;;3.80;50.40;;;;;;4876609;28;20189;-77
2021/10/03 04:43:34;;;;;;;3.73;0.93;;;3.90;47.80;;;;;;4876132;28;20251;-76
2021/10/03 04:45:57;;;;;;;2.97;0.90;;;3.80;47.40;;;;;;4876154;28;20255;-77
2021/10/03 04:48:20;;;;;;;8.17;1.90;;;;;;;;;;4875164;28;20577;-77
2021/10/03 04:50:43;;;;;;;3.07;0.87;;;;;;;;;;4875142;28;20225;-75
2021/10/03 04:53:05;;;;;;;3.27;1.13;;;;;;;;;;4876627;28;20178;-78
2021/10/03 04:55:28;;;;;;;2.67;0.80;;;;;;;;;;4876263;28;20710;-78
2021/10/03 04:57:52;;;;;;;2.50;0.73;;;3.90;46.10;;;;;;4876208;28;20204;-76
2021/10/03 05:00:15;;;;;;;7.03;1.60;;;4.00;46.20;;;;;;4875826;28;20255;-80
2021/10/03 05:02:38;;;;;;;4.23;1.10;;;4.10;48.30;;;;;;4866131;28;20225;-81
2021/10/03 05:05:01;;;;;;;5.03;1.23;;;4.20;46.30;;;;;;4876739;28;20246;-82
2021/10/03 05:07:24;;;;;;;6.30;1.50;;;4.10;47.60;;;;;;4875571;28;20254;-80
2021/10/03 05:09:47;;;;;;;4.40;1.17;;;;;;;;;;4876628;28;20590;-81
2021/10/03 05:12:10;;;;;;;2.27;0.70;;;4.20;46.50;;;;;;4875875;28;20217;-79
2021/10/03 05:14:34;;;;;;;3.93;1.00;;;4.30;44.30;;;;;;4876150;28;20189;-80
2021/10/03 05:16:56;;;;;;;3.90;1.03;;;4.40;44.00;;;;;;4876162;28;20227;-81
2021/10/03 05:19:19;;;;;;;10.40;2.17;;;4.50;43.70;;;;;;4875963;28;20647;-80
2021/10/03 05:21:42;;;;;;;3.63;1.10;;;;;;;;;;4875951;28;20190;-80
2021/10/03 05:24:05;;;;;;;5.10;1.17;;;4.50;44.90;;;;;;4875992;28;20189;-79
2021/10/03 05:26:28;;;;;;;6.17;1.40;;;;;;;;;;4875269;28;20181;-79
2021/10/03 05:28:50;;;;;;;3.17;0.77;;;4.50;42.10;;;;;;4875168;28;20232;-82
2021/10/03 05:31:14;;;;;;;10.30;2.00;;;5.00;42.80;;;;;;4875419;28;20212;-79
2021/10/03 05:33:39;;;;;;;5.07;1.27;;;;;;;;;;4868609;28;20615;-80
2021/10/03 05:36:02;;;;;;;3.87;1.00;;;5.90;42.70;;;;;;4875762;28;20223;-80
2021/10/03 05:38:24;;;;;;;10.43;2.13;;;5.20;42.60;;;;;;4875120;28;20193;-79
2021/10/03 05:40:48;;;;;;;3.20;0.87;;;;;;;;;;4875910;28;20186;-79
2021/10/03 05:43:10;;;;;;;5.00;0.97;;;;;;;;;;4875434;28;20250;-78
2021/10/03 05:45:33;;;;;;;4.30;1.00;;;5.20;40.20;;;;;;4876110;28;20212;-79
2021/10/03 05:47:56;;;;;;;5.60;1.20;;;5.50;41.70;;;;;;4875419;28;20185;-80
2021/10/03 05:50:19;;;;;;;10.83;2.20;;;;;;;;;;4874210;28;20235;-79
2021/10/03 05:52:42;;;;;;;7.83;1.70;;;;;;;;;;4875000;28;20239;-81
2021/10/03 05:55:05;;;;;;;4.83;1.10;;;6.20;38.80;;;;;;4871998;28;20227;-80
2021/10/03 05:57:28;;;;;;;7.87;1.73;;;;;;;;;;4875226;28;20234;-82
2021/10/03 05:59:50;;;;;;;3.10;0.87;;;6.60;37.90;;;;;;4874384;28;20227;-80
2021/10/03 06:02:13;;;;;;;5.60;1.23;;;6.70;38.80;;;;;;4870986;28;20605;-80
2021/10/03 06:04:37;;;;;;;6.00;1.23;;;7.60;37.60;;;;;;4871008;28;20185;-81
2021/10/03 06:06:59;;;;;;;4.63;1.17;;;6.80;37.20;;;;;;4875240;28;20197;-81
2021/10/03 06:09:22;;;;;;;8.93;2.00;;;;;;;;;;4875387;28;20193;-80
2021/10/03 06:11:44;;;;;;;5.47;1.23;;;7.30;37.20;;;;;;4873957;28;20221;-80
2021/10/03 06:14:07;;;;;;;5.50;1.20;;;7.90;37.60;;;;;;4873954;28;20209;-80
2021/10/03 06:16:30;;;;;;;6.00;1.37;;;;;;;;;;4873600;28;20197;-81
2021/10/03 06:18:53;;;;;;;2.83;0.80;;;;;;;;;;4874683;28;20193;-80
2021/10/03 06:21:17;;;;;;;9.03;1.90;;;7.90;40.00;;;;;;4874802;28;20197;-79
2021/10/03 06:23:39;;;;;;;3.10;0.80;;;8.30;38.90;;;;;;4875564;28;20586;-81
2021/10/03 06:26:02;;;;;;;4.63;1.17;;;;;;;;;;4875136;28;20190;-80
2021/10/03 06:28:24;;;;;;;9.03;1.87;;;8.30;39.50;;;;;;4874233;28;20239;-79
2021/10/03 06:30:47;;;;;;;4.50;1.03;;;;;;;;;;4874348;28;20181;-80
2021/10/03 06:33:10;;;;;;;2.87;0.70;;;;;;;;;;4873938;28;20235;-80
2021/10/03 06:35:33;;;;;;;6.00;1.27;;;9.40;39.80;;;;;;4866701;28;20198;-80
2021/10/03 06:37:57;;;;;;;4.43;1.00;;;9.40;42.10;;;;;;4870173;28;20251;-81
2021/10/03 06:40:20;;;;;;;9.80;1.87;;;;;;;;;;4874197;28;20192;-82
2021/10/03 06:42:42;;;;;;;5.30;1.13;;;10.00;46.90;;;;;;4874059;28;20194;-81
2021/10/03 06:45:06;;;;;;;4.17;0.93;;;10.10;53.90;;;;;;4872795;28;20311;-80
2021/10/03 06:47:28;;;;;;;3.73;0.87;;;9.70;61.30;;;;;;4877388;28;20192;-80
2021/10/03 06:49:51;;;;;;;3.23;0.93;;;10.00;72.50;;;;;;4877320;28;20209;-80
2021/10/03 06:52:14;;;;;;;9.83;1.90;;;;;;;;;;4876971;28;20217;-81
2021/10/03 06:54:38;;;;;;;7.63;1.57;;;10.20;41.10;;;;;;4874561;28;20315;-83
2021/10/03 06:57:01;;;;;;;5.33;1.13;;;;;;;;;;4869311;28;20194;-82
2021/10/03 06:59:24;;;;;;;6.77;1.50;;;;;;;;;;4870976;28;20247;-81
2021/10/03 07:01:47;;;;;;;5.43;1.13;;;;;;;;;;4869544;28;20197;-80
2021/10/03 07:04:10;;;;;;;2.63;0.70;;;;;;;;;;4878960;28;20233;-82
2021/10/03 07:06:32;;;;;;;4.27;1.00;;;10.90;65.70;;;;;;4877426;28;20185;-81
2021/10/03 07:08:55;;;;;;;4.70;1.07;;;10.90;97.80;;;;;;4879738;28;20251;-83
2021/10/03 07:11:19;;;;;;;9.87;1.83;;;11.10;70.60;;;;;;4879280;28;20735;-83
2021/10/03 07:13:43;;;;;;;4.60;1.07;;;;;;;;;;4879892;28;20185;-84
2021/10/03 07:16:06;;;;;;;5.77;1.23;;;10.70;33.90;;;;;;4878954;28;20247;-85
2021/10/03 07:18:29;;;;;;;4.13;0.97;;;;;;;;;;4878686;28;20200;-84
2021/10/03 07:20:51;;;;;;;3.93;0.87;;;;;;;;;;4877175;28;20868;-87
2021/10/03 07:23:14;;;;;;;9.47;1.73;;;;;;;;;;4877551;28;20193;-84
2021/10/03 07:25:36;;;;;;;7.50;1.43;;;12.30;36.70;;;;;;4877368;28;20201;-83
2021/10/03 07:28:00;;;;;;;3.87;0.90;;;12.40;75.30;;;;;;4877633;28;20224;-88
2021/10/03 07:30:23;;;;;;;8.97;1.83;;;;;;;;;;4878140;28;20246;-88
2021/10/03 07:32:46;;;;;;;6.77;1.13;;;;;;;;;;4878984;28;20565;-79
2021/10/03 07:35:10;;;;;;;4.57;0.80;;;13.20;54.60;;;;;;4878317;28;20978;-77
2021/10/03 07:37:33;;;;;;;6.97;1.17;;;;;;;;;;4878427;28;20197;-88
2021/10/03 07:39:56;;;;;;;5.63;1.00;;;;;;;;;;4878515;28;20248;-86
2021/10/03 07:42:18;;;;;;;12.63;2.13;;;;;;;;;;4878791;28;20597;-81
2021/10/03 07:44:42;;;;;;;3.17;0.70;;;14.10;51.30;;;;;;4878761;28;20227;-84
2021/10/03 07:47:05;;;;;;;2.63;0.80;;;13.70;44.90;;;;;;4877807;28;20193;-84
2021/10/03 07:49:28;;;;;;;9.80;2.23;;;;;;;;;;4878037;28;20194;-87
2021/10/03 07:51:51;;;;;;;1.47;0.47;;;;;;;;;;4878836;28;20197;-81
2021/10/03 07:54:13;;;;;;;7.80;1.37;;;;;;;;;;4877560;28;20240;-83
2021/10/03 07:56:36;;;;;;;2.43;0.77;;;14.70;81.40;;;;;;4875876;28;20247;-85
2021/10/03 07:58:58;;;;;;;3.07;1.00;;;14.40;39.30;;;;;;4876514;28;20211;-86
2021/10/03 08:01:22;;;;;;;7.03;1.77;;;15.10;40.90;;;;;;4874922;28;20239;-84
2021/10/03 08:03:45;;;;;;;2.53;0.83;;;15.10;50.90;;;;;;4872177;28;20252;-86
2021/10/03 08:06:08;;;;;;;3.00;0.90;;;;;;;;;;4875256;28;20213;-83
2021/10/03 08:08:31;;;;;;;2.77;0.90;;;;;;;;;;4877987;28;20541;-83
2021/10/03 08:10:53;;;;;;;3.30;0.90;;;;;;;;;;4875007;28;20656;-76
2021/10/03 08:13:16;;;;;;;6.13;1.70;;;15.30;51.80;;;;;;4869583;28;20827;-80
2021/10/03 08:15:41;;;;;;;3.53;1.03;;;;;;;;;;4870102;28;20191;-86
2021/10/03 08:18:05;;;;;;;3.47;1.00;;;15.30;51.90;;;;;;4877513;28;20243;-84
2021/10/03 08:20:28;;;;;;;8.20;2.23;;;;;;;;;;4875467;28;20197;-82
2021/10/03 08:22:50;;;;;;;4.07;1.23;;;15.00;50.90;;;;;;4872013;28;20205;-76
2021/10/03 08:25:13;;;;;;;6.10;1.57;;;15.90;51.80;;;;;;4874770;28;20205;-75
2021/10/03 08:27:36;;;;;;;1.93;0.70;;;15.70;52.20;;;;;;4884127;28;20209;-78
2021/10/03 08:29:59;;;;;;;2.77;0.80;;;;;;;;;;4873741;28;20235;-77
2021/10/03 08:32:22;;;;;;;8.40;2.20;;;16.30;51.80;;;;;;4875029;28;20217;-77
2021/10/03 08:34:45;;;;;;;4.13;0.97;;;16.00;52.70;;;;;;4875588;28;20251;-75
2021/10/03 08:37:08;;;;;;;5.30;1.13;;;;;;;;;;4874903;28;20259;-77
2021/10/03 08:39:31;;;;;;;4.93;1.27;;;;;;;;;;4873175;28;20602;-77
2021/10/03 08:41:54;;;;;;;3.20;0.80;;;16.50;53.10;;;;;;4872390;28;20209;-79
2021/10/03 08:44:19;;;;;;;12.20;2.27;;;17.40;53.00;;;;;;4872630;28;20222;-79
2021/10/03 08:46:43;;;;;;;14.20;2.57;;;17.30;53.90;;;;;;4869528;28;20196;-76
2021/10/03 08:49:06;;;;;;;7.63;1.57;;;;;;;;;;4870244;28;20208;-77
2021/10/03 08:51:30;;;;;;;10.27;1.73;;;18.10;54.60;;;;;;4857096;28;20215;-77
2021/10/03 08:53:53;;;;;;;14.00;2.23;;;;;;;;;;4875971;28;20270;-80
2021/10/03 08:56:16;;;;;;;22.77;3.30;;;;;;;;;;4868186;28;20193;-77
2021/10/03 08:58:39;;;;;;;8.33;1.40;;;;;;;;;;4870178;28;20251;-79
2021/10/03 09:01:02;;;;;;;7.77;1.33;;;;;;;;;;4872223;28;20193;-77
2021/10/03 09:03:25;;;;;;;9.87;1.40;;;21.20;57.10;;;;;;4875317;28;20221;-79
2021/10/03 09:05:50;;;;;;;22.83;2.70;;;21.90;58.20;;;;;;4874185;28;20247;-79
2021/10/03 09:08:15;;;;;;;289.63;138.03;;;23.40;59.20;;;;;;4875373;28;20644;-80
2021/10/03 09:10:50;;;;;;;361.27;210.83;;;;;;;;;;4867942;28;20276;-76
2021/10/03 09:13:13;;;;;;;425.73;241.27;;;;;;;;;;4880393;28;20739;-77
2021/10/03 09:15:36;;;;;;;475.70;292.60;;;;;;;;;;4868987;28;20195;-77
2021/10/03 09:17:59;;;;;;;462.13;283.73;;;;;;;;;;4875054;28;20194;-79
2021/10/03 09:20:23;;;;;;;389.97;274.10;;;30.00;48.60;;;;;;4874990;28;20195;-80
2021/10/03 09:22:55;;;;;;;191.70;157.70;;;30.70;49.10;;;;;;4873618;28;20195;-77
2021/10/03 09:25:33;;;;;;;77.83;52.67;;;31.00;49.20;;;;;;4875166;28;20264;-81
2021/10/03 09:27:56;;;;;;;82.33;74.27;;;;;;;;;;4875223;28;20601;-77
2021/10/03 09:30:19;;;;;;;84.23;71.90;;;;;;;;;;4875417;28;20242;-75
2021/10/03 09:32:56;;;;;;;12.90;1.63;;;31.10;49.40;;;;;;4874598;28;20608;-79
2021/10/03 09:35:18;;;;;;;60.53;54.60;;;;;;;;;;4871453;28;20178;-77
2021/10/03 09:37:41;;;;;;;81.27;56.03;;;;;;;;;;4875103;28;20203;-77
2021/10/03 09:40:06;;;;;;;14.47;1.93;;;33.70;50.40;;;;;;4874360;28;20192;-77
2021/10/03 09:42:30;;;;;;;78.50;58.43;;;35.30;51.00;;;;;;4874758;28;20199;-76
2021/10/03 09:45:09;;;;;;;26.40;3.23;;;36.80;51.60;;;;;;4874972;28;20251;-76
2021/10/03 09:47:32;;;;;;;17.08;2.13;;;38.30;50.60;;;;;;4873941;28;20267;-77
2021/10/03 09:49:55;;;;;;;29.60;3.60;;;39.10;52.50;;;;;;4874830;28;20193;-75
2021/10/03 09:52:18;;;;;;;17.77;2.25;;;;;;;;;;4874428;28;20238;-77
2021/10/03 09:54:40;;;;;;;15.25;1.90;;;40.50;52.00;;;;;;4874700;28;20200;-75
2021/10/03 09:57:03;;;;;;;25.23;3.05;;;41.20;52.10;;;;;;4874265;28;20783;-79
2021/10/03 09:59:27;;;;;;;17.75;2.28;;;41.60;53.40;;;;;;4874323;28;20258;-77
2021/10/03 10:01:50;;;;;;;16.60;2.15;;;;;;;;;;4872580;28;20185;-75
2021/10/03 10:04:14;;;;;;;11.27;1.48;;;42.90;53.90;;;;;;4873569;28;20260;-79
2021/10/03 10:06:37;;;;;;;14.18;1.88;;;43.40;53.10;;;;;;4874615;28;20266;-77
2021/10/03 10:09:05;;;;;;;23.40;2.97;;;43.50;52.70;;;;;;4874296;28;20205;-76
2021/10/03 10:11:34;;;;;;;16.52;2.13;;;44.70;54.40;;;;;;4874203;28;20255;-78
2021/10/03 10:13:58;;;;;;;28.13;3.45;;;44.20;54.40;;;;;;4872502;28;20200;-82
2021/10/03 10:16:34;;;;;;;16.05;2.05;;;44.30;53.10;;;;;;4874671;28;20189;-76
2021/10/03 10:19:28;;;;;;;24.95;3.00;;;44.60;53.30;;;;;;4874061;28;20524;-79
2021/10/03 10:22:41;;;;;;;18.92;2.38;;;43.60;54.20;;;;;;4867287;28;20197;-79
2021/10/03 10:25:16;;;;;;;18.13;2.28;;;43.60;53.00;;;;;;4872747;28;20592;-81
2021/10/03 10:28:06;;;;;;;12.98;1.65;;;44.80;53.40;;;;;;4868211;28;20239;-76
2021/10/03 10:30:29;;;;;;;12.52;1.67;;;;;;;;;;4874209;28;20193;-79
2021/10/03 10:33:10;;;;;;;22.38;2.83;;;44.80;54.20;;;;;;4873420;28;20213;-77
2021/10/03 10:35:34;;;;;;;12.35;1.58;;;45.90;55.00;;;;;;4874571;28;20235;-78
2021/10/03 10:38:19;;;;;;;20.40;2.60;;;46.30;55.10;;;;;;4870594;28;20601;-79
2021/10/03 10:40:42;;;;;;;15.90;2.05;;;45.60;54.90;;;;;;4876646;28;20647;-82
2021/10/03 10:43:47;;;;;;;18.58;2.42;;;46.80;55.30;;;;;;4872199;28;20255;-77
2021/10/03 10:46:09;;;;;;;10.32;1.40;;;;;;;;;;4874235;28;20234;-76
2021/10/03 10:48:33;;;;;;;12.10;1.65;;;45.70;54.90;;;;;;4872995;28;20239;-76
2021/10/03 10:51:18;;;;;;;20.27;2.53;;;45.40;54.90;;;;;;4874103;28;20243;-79
2021/10/03 10:53:41;;;;;;;15.38;2.08;;;;;;;;;;4867828;28;20592;-80
2021/10/03 10:56:06;;;;;;;19.42;2.42;;;45.30;54.80;;;;;;4870807;28;20190;-82
2021/10/03 10:58:29;;;;;;;16.60;2.20;;;44.60;54.60;;;;;;4871754;28;20207;-79
2021/10/03 11:01:15;;;;;;;18.33;2.30;;;44.10;53.80;;;;;;4870531;28;20255;-77
2021/10/03 11:03:59;;;;;;;13.90;1.85;;;43.30;53.10;;;;;;4865437;28;20235;-76
2021/10/03 11:06:57;;;;;;;15.98;2.05;;;44.00;53.50;;;;;;4871182;28;20223;-77
2021/10/03 11:09:20;;;;;;;16.27;2.15;;;;;;;;;;4870593;28;20212;-77
2021/10/03 11:12:12;;;;;;;10.07;1.40;;;45.70;54.70;;;;;;4873719;28;20189;-80
2021/10/03 11:14:36;;;;;;;11.23;1.50;;;45.60;54.90;;;;;;4869761;28;20259;-79
2021/10/03 11:17:03;;;;;;;19.58;2.53;;;45.50;54.60;;;;;;4872487;28;20205;-78
2021/10/03 11:19:46;;;;;;;14.38;1.90;;;46.80;55.30;;;;;;4871630;28;20268;-79
2021/10/03 11:22:12;;;;;;;11.77;1.58;;;47.40;55.50;;;;;;4871108;28;20173;-79
2021/10/03 11:24:37;;;;;;;16.77;2.17;;;47.60;55.50;;;;;;4873778;28;20259;-78
2021/10/03 11:27:01;;;;;;;20.58;2.63;;;48.00;55.70;;;;;;4873810;28;20201;-81
2021/10/03 11:29:26;;;;;;;15.50;1.95;;;48.50;55.80;;;;;;4855221;28;20194;-81
2021/10/03 11:31:50;;;;;;;9.82;1.33;;;48.90;56.00;;;;;;4874158;28;20255;-80
2021/10/03 11:34:26;;;;;;;11.73;1.60;;;49.20;56.10;;;;;;4872869;28;20185;-78
2021/10/03 11:36:51;;;;;;;7.97;1.05;;;49.50;56.20;;;;;;4874056;28;20193;-77
2021/10/03 11:39:13;;;;;;;16.63;2.13;;;;;;;;;;4877307;28;20238;-76
2021/10/03 11:41:47;;;;;;;21.02;2.67;;;49.40;56.20;;;;;;4867918;28;20193;-80
2021/10/03 11:44:19;;;;;;;7.60;1.00;;;49.20;56.10;;;;;;4876821;28;20361;-77
2021/10/03 11:46:55;;;;;;;14.35;1.95;;;49.00;56.00;;;;;;4877421;28;20227;-78
2021/10/03 11:49:25;;;;;;;23.27;3.05;;;48.50;55.80;;;;;;4875749;28;20189;-77
2021/10/03 11:51:48;;;;;;;11.48;1.50;;;;;;;;;;4876853;28;20487;-79
2021/10/03 11:54:11;;;;;;;9.95;1.38;;;47.90;55.60;;;;;;4877110;28;20200;-76
2021/10/03 11:56:37;;;;;;;22.73;2.83;;;47.70;55.60;;;;;;4876016;28;20242;-75
2021/10/03 11:59:00;;;;;;;27.75;3.30;;;;;;;;;;4875169;28;20251;-77
2021/10/03 12:01:30;;;;;;;24.67;3.05;;;46.90;55.30;;;;;;4869599;28;20189;-75
2021/10/03 12:03:57;;;;;;;23.30;2.88;;;47.30;54.10;;;;;;4870160;28;20233;-82
2021/10/03 12:06:50;;;;;;;131.10;14.77;;;47.20;55.40;;;;;;4768423;22;20233;-76
2021/10/03 12:09:18;;;;;;;40.85;4.82;;;47.80;55.60;;;;;;4849085;28;20216;-84
2021/10/03 12:11:57;;;;;;;18.27;2.38;;;48.60;55.90;;;;;;4839059;28;20341;-79
2021/10/03 12:14:43;;;;;;;26.40;3.28;;;49.80;56.20;;;;;;4857137;28;20269;-81
2021/10/03 12:17:14;;;;;;;16.35;2.05;;;50.80;56.60;;;;;;4843846;28;21017;-77
2021/10/03 12:19:58;;;;;;;19.63;2.42;;;51.60;56.80;;;;;;4827240;28;20197;-78
2021/10/03 12:22:38;;;;;;;33.08;3.92;;;52.00;57.00;;;;;;4839099;28;20186;-75
2021/10/03 12:25:18;;;;;;;14.65;1.90;;;52.40;57.10;;;;;;4809623;28;20192;-76
2021/10/03 12:27:59;;;;;;;19.75;2.55;;;52.80;57.20;;;;;;4835116;28;20274;-84
2021/10/03 12:30:31;;;;;;;26.75;3.33;;;52.10;57.00;;;;;;4828804;28;20297;-75
2021/10/03 12:33:01;;;;;;;57.45;6.72;;;52.00;57.00;;;;;;4799222;28;20235;-76
2021/10/03 12:35:25;;;;;;;29.35;3.63;;;;;;;;;;4803715;28;20759;-74
2021/10/03 12:37:48;;;;;;;74.25;32.33;;;;;;;;;;4842293;28;20216;-75
2021/10/03 12:40:15;;;;;;;64.03;52.88;;;;;;;;;;4847690;28;20191;-74
2021/10/03 12:42:41;;;;;;;19.33;2.50;;;52.20;57.00;;;;;;4827786;28;20198;-73
2021/10/03 12:45:06;;;;;;;16.23;2.13;;;52.10;57.00;;;;;;4843527;28;20284;-74
2021/10/03 12:47:30;;;;;;;79.00;37.30;;;;;;;;;;4845277;28;20665;-83
2021/10/03 12:49:53;;;;;;;57.83;27.73;;;;;;;;;;4817654;28;20297;-82
2021/10/03 12:52:19;;;;;;;29.70;14.93;;;47.90;55.60;;;;;;4837455;28;20202;-85
2021/10/03 12:54:44;;;;;;;17.70;2.22;;;44.90;54.20;;;;;;4804907;28;20212;-84
2021/10/03 12:57:08;;;;;;;15.57;1.98;;;44.30;54.50;;;;;;4845300;28;20186;-86
2021/10/03 12:59:39;;;;;;;22.45;2.70;;;43.10;54.00;;;;;;4835053;28;20216;-88
2021/10/03 13:02:03;;;;;;;14.60;1.88;;;42.70;53.90;;;;;;4831660;28;20245;-86
2021/10/03 13:04:27;;;;;;;33.08;3.95;;;42.20;53.70;;;;;;4831297;28;20221;-83
2021/10/03 13:06:51;;;;;;;9.48;1.25;;;41.50;53.40;;;;;;4835906;28;20230;-82
2021/10/03 13:09:15;;;;;;;26.52;3.13;;;;;;;;;;4846718;28;20286;-74
2021/10/03 13:11:39;;;;;;;14.50;1.83;;;;;;;;;;4821839;28;20214;-86
2021/10/03 13:14:03;;;;;;;13.43;1.67;;;;;;;;;;4803772;28;20367;-85